Time;durP1;ratioP1;P1;durP2;ratioP2;P2;SDS_P1;SDS_P2;PMS_P1;PMS_P2;Temp;Humidity;BMP_temperature;BMP_pressure;BME280_temperature;BME280_humidity;BME280_pressure;Samples;Min_cycle;Max_cycle;Signal;HPM_P1;HPM_P2
2023/03/04 02:58:04;;;;;;;21.55;2.50;;;5.50;99.90;;;;;;6182516;22;20041;-86
2023/03/04 03:01:23;;;;;;;17.58;2.67;;;5.60;99.90;;;;;;5385001;23;17787327;-86
2023/03/04 03:04:11;;;;;;;26.90;2.45;;;5.50;99.90;;;;;;6119374;23;20005;-85
2023/03/04 03:07:42;;;;;;;19.05;2.35;;;5.40;99.90;;;;;;6129014;23;20033;-86
2023/03/04 03:10:39;;;;;;;;;;;;;;;;;;;;;
2023/03/04 03:13:20;;;;;;;18.13;2.60;;;5.60;99.90;;;;;;6165314;23;20028;-85
2023/03/04 03:15:58;;;;;;;22.50;1.90;;;5.60;99.90;;;;;;6143508;23;20075;-85
2023/03/04 03:19:23;;;;;;;14.95;2.38;;;5.60;99.90;;;;;;6050805;23;20024;-84
2023/03/04 03:22:13;;;;;;;;;;;;;;;;;;;;;
2023/03/04 03:25:18;;;;;;;17.05;2.03;;;5.70;99.90;;;;;;5926427;24;20024;-86
2023/03/04 03:27:54;;;;;;;12.45;2.08;;;5.50;99.90;;;;;;5903875;24;20028;-88
2023/03/04 03:30:58;;;;;;;;;;;;;;;;;;;;;
2023/03/04 03:34:07;;;;;;;14.25;1.92;;;5.50;99.90;;;;;;5948346;24;20066;-88
2023/03/04 03:37:20;;;;;;;12.48;2.17;;;5.50;99.90;;;;;;5902243;24;20431;-87
2023/03/04 03:39:51;;;;;;;17.75;2.45;;;5.60;99.90;;;;;;5876565;24;20054;-89
2023/03/04 03:43:21;;;;;;;13.48;1.80;;;5.50;99.90;;;;;;5839531;24;20236;-88
2023/03/04 03:45:48;;;;;;;20.23;2.28;;;5.60;99.90;;;;;;5718089;24;20046;-87
2023/03/04 03:48:32;;;;;;;;;;;;;;;;;;;;;
2023/03/04 03:55:22;;;;;;;16.52;2.08;;;5.40;99.90;;;;;;5771282;24;20045;-87
2023/03/04 03:58:23;;;;;;;14.82;1.83;;;5.70;99.90;;;;;;5736538;24;20042;-88
2023/03/04 04:01:20;;;;;;;20.40;1.77;;;5.40;99.90;;;;;;5695931;25;20036;-86
2023/03/04 04:04:16;;;;;;;15.48;1.75;;;5.50;99.90;;;;;;5696072;25;20034;-86
2023/03/04 04:10:50;;;;;;;13.60;1.98;;;5.70;99.90;;;;;;5787350;24;20080;-87
2023/03/04 04:14:00;;;;;;;19.13;2.67;;;5.40;99.90;;;;;;5769041;24;20532;-87
2023/03/04 04:17:13;;;;;;;18.45;2.10;;;5.40;99.90;;;;;;5848078;24;20031;-86
2023/03/04 04:20:01;;;;;;;;;;;;;;;;;;;;;
2023/03/04 04:26:33;;;;;;;16.65;2.53;;;5.70;99.90;;;;;;5869505;24;20105;-86
2023/03/04 04:29:18;;;;;;;11.88;1.77;;;5.80;99.90;;;;;;5863367;24;20017;-86
2023/03/04 04:31:48;;;;;;;18.70;2.15;;;5.50;99.90;;;;;;5871692;24;20018;-85
2023/03/04 04:34:46;;;;;;;13.35;1.77;;;5.60;99.90;;;;;;5871210;24;20050;-86
2023/03/04 04:43:49;;;;;;;20.08;2.10;;;5.80;99.90;;;;;;5893724;24;20025;-88
2023/03/04 04:46:43;;;;;;;19.60;2.03;;;5.50;99.90;;;;;;5877437;24;20102;-89
2023/03/04 04:49:50;;;;;;;18.10;2.10;;;5.50;99.90;;;;;;5872388;24;20025;-88
2023/03/04 04:52:29;;;;;;;20.45;2.15;;;5.70;99.90;;;;;;5894783;24;20021;-88
2023/03/04 04:55:17;;;;;;;11.48;1.70;;;5.70;99.90;;;;;;5898001;24;20040;-86
2023/03/04 04:58:03;;;;;;;;;;;;;;;;;;;;;
2023/03/04 05:04:50;;;;;;;15.00;1.90;;;5.50;99.90;;;;;;6033685;23;20030;-85
2023/03/04 05:07:22;;;;;;;20.63;2.30;;;5.60;99.90;;;;;;5874004;24;20028;-86
2023/03/04 05:09:51;;;;;;;16.17;2.08;;;5.50;99.90;;;;;;5898787;24;20020;-87
2023/03/04 05:12:21;;;;;;;14.18;2.50;;;5.70;99.90;;;;;;5874862;24;20013;-88
2023/03/04 05:15:04;;;;;;;15.48;1.80;;;5.80;99.90;;;;;;5879489;24;20130;-86
2023/03/04 05:17:45;;;;;;;19.35;1.55;;;5.90;99.90;;;;;;5876834;24;20077;-89
2023/03/04 05:20:19;;;;;;;21.88;1.90;;;5.80;99.90;;;;;;5916176;24;20020;-87
2023/03/04 05:22:48;;;;;;;14.88;2.00;;;5.40;99.90;;;;;;5930289;24;20028;-88
2023/03/04 05:25:14;;;;;;;22.77;2.28;;;5.40;99.90;;;;;;5931388;24;20048;-85
2023/03/04 05:27:43;;;;;;;12.55;1.90;;;5.90;99.90;;;;;;5951856;24;20016;-89
2023/03/04 05:30:10;;;;;;;21.05;2.10;;;5.80;99.90;;;;;;5931440;24;20016;-88
2023/03/04 05:32:36;;;;;;;18.55;2.53;;;6.00;99.90;;;;;;5961911;23;20025;-86
2023/03/04 05:35:10;;;;;;;17.15;2.97;;;5.80;99.90;;;;;;6007752;23;20148;-88
2023/03/04 05:41:21;;;;;;;21.25;2.85;;;5.40;99.90;;;;;;6031629;23;20018;-89
2023/03/04 05:43:48;;;;;;;15.98;2.78;;;6.00;99.90;;;;;;6046804;23;20053;-90
2023/03/04 05:46:17;;;;;;;18.08;2.13;;;5.40;99.90;;;;;;6093298;23;20025;-86
2023/03/04 05:48:44;;;;;;;26.58;2.50;;;6.00;99.90;;;;;;6070391;23;20039;-87
2023/03/04 05:51:41;;;;;;;23.63;2.75;;;5.70;99.90;;;;;;6070125;23;20010;-86
2023/03/04 05:58:08;;;;;;;15.57;2.58;;;6.10;99.90;;;;;;6119002;23;20109;-87
2023/03/04 06:00:41;;;;;;;23.58;2.40;;;5.50;99.90;;;;;;6072477;23;20029;-86
2023/03/04 06:03:15;;;;;;;15.10;2.47;;;5.70;99.90;;;;;;6072704;23;20014;-87
2023/03/04 06:05:41;;;;;;;16.15;2.25;;;5.60;99.90;;;;;;6072072;23;20399;-85
2023/03/04 06:08:45;;;;;;;19.10;2.20;;;5.40;99.90;;;;;;6087024;23;20078;-86
2023/03/04 06:11:14;;;;;;;17.35;2.30;;;5.50;99.90;;;;;;6125604;23;20025;-86
2023/03/04 06:13:43;;;;;;;18.83;2.70;;;5.40;99.90;;;;;;6124193;23;20372;-86
2023/03/04 06:16:12;;;;;;;15.30;2.20;;;5.50;99.90;;;;;;6123934;23;20017;-86
2023/03/04 06:18:41;;;;;;;19.67;2.00;;;6.00;99.90;;;;;;6124015;23;20071;-88
2023/03/04 06:21:13;;;;;;;14.50;2.22;;;5.50;99.90;;;;;;6124238;23;20010;-88
2023/03/04 06:23:40;;;;;;;15.00;2.20;;;5.70;99.90;;;;;;6149144;23;20017;-86
2023/03/04 06:26:14;;;;;;;14.93;2.00;;;5.70;99.90;;;;;;6126772;23;20013;-88
2023/03/04 06:28:43;;;;;;;18.23;2.30;;;5.70;99.90;;;;;;6128355;23;20097;-86
2023/03/04 06:31:10;;;;;;;16.50;2.08;;;5.50;99.90;;;;;;6126614;23;20096;-87
2023/03/04 06:33:39;;;;;;;20.05;1.83;;;5.80;99.90;;;;;;6149908;23;20071;-85
2023/03/04 06:36:08;;;;;;;11.73;1.90;;;5.50;99.90;;;;;;6125758;23;20009;-89
2023/03/04 06:38:37;;;;;;;23.48;2.22;;;5.50;99.90;;;;;;6127043;23;20009;-87
2023/03/04 06:41:10;;;;;;;16.48;2.17;;;5.50;99.90;;;;;;6134788;23;20013;-85
2023/03/04 06:43:40;;;;;;;15.10;2.13;;;5.60;99.90;;;;;;6143807;23;20102;-84
2023/03/04 06:46:07;;;;;;;17.25;2.15;;;5.50;99.90;;;;;;6145519;23;20025;-84
2023/03/04 06:48:33;;;;;;;22.63;2.08;;;5.80;99.90;;;;;;6178710;23;20017;-84
2023/03/04 06:51:05;;;;;;;15.57;2.08;;;6.00;99.90;;;;;;6143512;23;20017;-86
2023/03/04 06:54:11;;;;;;;16.23;2.13;;;6.00;99.90;;;;;;6131152;23;20020;-87
2023/03/04 06:56:37;;;;;;;13.95;2.13;;;5.80;99.90;;;;;;6154891;23;20041;-87
2023/03/04 06:59:04;;;;;;;19.30;2.20;;;6.00;99.90;;;;;;6133449;23;20427;-90
2023/03/04 07:01:30;;;;;;;15.93;2.15;;;5.50;99.90;;;;;;6160126;23;20020;-89
2023/03/04 07:03:56;;;;;;;13.18;1.85;;;5.60;99.90;;;;;;6135047;23;20025;-85
2023/03/04 07:06:24;;;;;;;15.40;1.65;;;5.90;99.90;;;;;;6132591;23;20060;-86
2023/03/04 07:12:41;;;;;;;21.42;1.55;;;6.00;99.90;;;;;;6181749;23;20453;-87
2023/03/04 07:15:07;;;;;;;16.40;2.03;;;6.00;99.90;;;;;;6130650;23;20394;-86
2023/03/04 07:17:36;;;;;;;22.38;1.75;;;5.60;99.90;;;;;;6184462;23;20111;-87
2023/03/04 07:20:21;;;;;;;16.52;2.55;;;5.70;99.90;;;;;;6132298;23;20044;-87
2023/03/04 07:22:47;;;;;;;19.57;2.27;;;5.70;99.90;;;;;;6130546;23;20017;-86
2023/03/04 07:25:13;;;;;;;16.02;1.58;;;5.60;99.90;;;;;;6132812;23;20116;-86
2023/03/04 07:27:39;;;;;;;10.93;1.70;;;6.10;99.90;;;;;;6132969;23;20020;-88
2023/03/04 07:30:07;;;;;;;14.80;1.85;;;5.50;99.90;;;;;;6158145;23;20406;-88
2023/03/04 07:32:35;;;;;;;16.08;1.52;;;6.10;99.90;;;;;;6135080;23;20513;-88
2023/03/04 07:35:03;;;;;;;17.65;2.15;;;6.00;99.90;;;;;;6134895;23;20059;-86
2023/03/04 07:37:29;;;;;;;19.83;2.00;;;5.90;99.90;;;;;;6132927;23;20476;-87
2023/03/04 07:39:55;;;;;;;14.80;2.00;;;5.90;99.90;;;;;;6132390;23;20096;-85
2023/03/04 07:42:20;;;;;;;17.00;2.38;;;5.90;99.90;;;;;;6132932;23;20044;-88
2023/03/04 07:44:46;;;;;;;16.73;2.05;;;6.30;99.90;;;;;;6132389;23;20313;-85
2023/03/04 07:47:15;;;;;;;23.40;2.67;;;6.30;99.90;;;;;;6134247;23;20023;-90
2023/03/04 07:49:44;;;;;;;17.38;2.88;;;6.50;99.90;;;;;;6133574;23;20060;-86
2023/03/04 07:52:13;;;;;;;18.77;2.55;;;6.00;99.90;;;;;;6128408;23;20009;-83
2023/03/04 07:54:39;;;;;;;18.83;2.90;;;6.00;99.90;;;;;;6130778;23;20065;-88
2023/03/04 07:57:05;;;;;;;26.00;3.45;;;6.50;99.90;;;;;;6131175;23;20019;-88
2023/03/04 07:59:30;;;;;;;23.40;3.00;;;6.40;99.90;;;;;;6153889;23;20029;-87
2023/03/04 08:01:56;;;;;;;30.58;4.00;;;5.90;99.90;;;;;;6155163;23;20017;-88
2023/03/04 08:04:22;;;;;;;37.35;4.40;;;5.90;99.90;;;;;;6130912;23;20109;-83
2023/03/04 08:06:48;;;;;;;30.92;3.88;;;6.30;99.90;;;;;;6131970;23;20108;-85
2023/03/04 08:12:54;;;;;;;34.22;4.13;;;5.50;99.90;;;;;;6182131;23;20019;-88
2023/03/04 08:15:20;;;;;;;39.65;4.45;;;6.20;99.90;;;;;;6132819;23;20091;-85
2023/03/04 08:17:46;;;;;;;39.83;4.70;;;5.70;99.90;;;;;;6132547;23;20132;-86
2023/03/04 08:20:12;;;;;;;31.73;4.47;;;6.30;99.90;;;;;;6132589;23;20021;-85
2023/03/04 08:22:37;;;;;;;38.05;4.22;;;6.30;99.90;;;;;;6131639;23;20048;-86
2023/03/04 08:25:03;;;;;;;41.45;4.97;;;5.80;99.90;;;;;;6156979;23;20020;-85
2023/03/04 08:27:29;;;;;;;35.72;4.93;;;5.80;99.90;;;;;;6133013;23;20020;-90
2023/03/04 08:29:55;;;;;;;33.13;3.45;;;6.10;99.90;;;;;;6133075;23;20401;-87
2023/03/04 08:32:21;;;;;;;40.42;4.03;;;5.90;99.90;;;;;;6134024;23;20017;-89
2023/03/04 08:34:46;;;;;;;29.55;3.30;;;6.20;99.90;;;;;;6129805;23;20452;-88
2023/03/04 08:37:12;;;;;;;29.27;4.05;;;6.20;99.90;;;;;;6154731;23;20091;-85
2023/03/04 08:39:56;;;;;;;26.88;3.45;;;6.20;99.90;;;;;;6131755;23;20023;-84
2023/03/04 08:42:23;;;;;;;22.90;3.45;;;6.00;99.90;;;;;;6131357;23;20036;-87
2023/03/04 08:44:49;;;;;;;26.30;3.17;;;6.20;99.90;;;;;;6154981;23;20345;-87
2023/03/04 08:47:15;;;;;;;30.55;4.28;;;6.30;99.90;;;;;;6154589;23;20426;-87
2023/03/04 08:49:41;;;;;;;31.05;4.38;;;6.30;99.90;;;;;;6132824;23;20023;-85
2023/03/04 08:52:07;;;;;;;25.65;3.63;;;6.00;99.90;;;;;;6132689;23;20397;-90
2023/03/04 08:54:33;;;;;;;35.53;4.72;;;5.90;99.90;;;;;;6133310;23;20009;-88
2023/03/04 08:56:59;;;;;;;33.40;4.80;;;5.70;99.90;;;;;;6132098;23;20021;-91
2023/03/04 08:59:25;;;;;;;33.63;4.70;;;5.90;99.90;;;;;;6158584;23;20076;-89
2023/03/04 09:01:51;;;;;;;30.77;3.95;;;6.00;99.90;;;;;;6130496;23;20028;-87
2023/03/04 09:04:23;;;;;;;33.35;4.30;;;6.00;99.90;;;;;;6157154;23;20017;-92
2023/03/04 09:06:52;;;;;;;29.27;3.85;;;6.10;99.90;;;;;;6131382;23;20071;-85
2023/03/04 09:09:18;;;;;;;26.15;3.72;;;6.30;99.90;;;;;;6131919;23;20016;-87
2023/03/04 09:11:44;;;;;;;28.70;3.83;;;6.30;99.90;;;;;;6131703;23;20119;-86
2023/03/04 09:14:18;;;;;;;31.63;4.43;;;6.10;99.90;;;;;;6134692;23;20311;-88
2023/03/04 09:16:44;;;;;;;30.42;4.57;;;6.40;99.90;;;;;;6134509;23;20082;-86
2023/03/04 09:19:10;;;;;;;23.13;4.20;;;6.40;99.90;;;;;;6133860;23;20013;-87
2023/03/04 09:21:36;;;;;;;28.70;4.13;;;6.40;99.90;;;;;;6133559;23;20043;-90
2023/03/04 09:24:02;;;;;;;25.13;3.42;;;6.40;99.90;;;;;;6137241;23;20033;-87
2023/03/04 09:26:29;;;;;;;26.73;3.55;;;6.50;99.90;;;;;;6135615;23;20053;-89
2023/03/04 09:28:57;;;;;;;23.83;3.00;;;6.40;99.90;;;;;;6134207;23;20013;-90
2023/03/04 09:31:24;;;;;;;25.60;2.60;;;6.50;99.90;;;;;;6132945;23;20013;-87
2023/03/04 09:33:51;;;;;;;20.88;2.53;;;6.50;99.90;;;;;;6134306;23;20009;-90
2023/03/04 09:36:18;;;;;;;13.25;2.03;;;6.30;99.90;;;;;;6131984;23;20097;-89
2023/03/04 09:39:21;;;;;;;22.23;2.45;;;6.20;99.90;;;;;;6133436;23;20039;-89
2023/03/04 09:41:51;;;;;;;20.33;2.67;;;6.30;99.90;;;;;;6131913;23;20017;-85
2023/03/04 09:44:39;;;;;;;18.45;3.13;;;6.30;99.90;;;;;;6133731;23;20193;-89
2023/03/04 09:47:11;;;;;;;14.45;2.30;;;6.20;99.90;;;;;;6133405;23;20021;-87
2023/03/04 09:49:44;;;;;;;10.38;1.60;;;6.50;99.90;;;;;;6134823;23;20020;-87
2023/03/04 09:52:28;;;;;;;14.88;2.17;;;6.30;99.90;;;;;;6134417;23;20009;-89
2023/03/04 09:58:50;;;;;;;10.80;1.50;;;6.60;99.90;;;;;;6192370;23;20012;-86
2023/03/04 10:01:25;;;;;;;9.35;1.40;;;6.70;99.90;;;;;;6141190;23;20021;-88
2023/03/04 10:04:01;;;;;;;10.88;1.73;;;6.70;99.90;;;;;;6142783;23;20282;-88
2023/03/04 10:06:30;;;;;;;19.05;2.47;;;6.70;99.90;;;;;;6167905;23;20017;-86
2023/03/04 10:09:18;;;;;;;23.73;3.65;;;6.60;99.90;;;;;;6167097;23;20016;-85
2023/03/04 10:11:47;;;;;;;21.33;3.17;;;6.30;99.90;;;;;;6138629;23;20013;-87
2023/03/04 10:14:22;;;;;;;28.10;3.05;;;6.40;99.90;;;;;;6135388;23;20039;-87
2023/03/04 10:16:50;;;;;;;;;;;6.20;99.90;;;;;;6134523;23;20019;-86
2023/03/04 10:19:42;;;;;;;28.85;3.83;;;6.50;99.90;;;;;;6134369;23;19938;-88
2023/03/04 10:22:22;;;;;;;29.30;3.92;;;6.40;99.90;;;;;;6158613;23;20084;-87
2023/03/04 10:28:30;;;;;;;29.40;4.82;;;6.30;99.90;;;;;;6200271;23;20376;-85
2023/03/04 10:31:26;;;;;;;27.85;3.72;;;6.50;99.90;;;;;;6150620;23;20021;-86
2023/03/04 10:33:51;;;;;;;28.80;4.13;;;6.50;99.90;;;;;;6158161;23;20016;-87
2023/03/04 10:36:27;;;;;;;28.05;4.75;;;6.40;99.90;;;;;;6142969;23;20299;-87
2023/03/04 10:42:36;;;;;;;24.30;4.13;;;6.50;99.90;;;;;;6191911;23;20008;-89
2023/03/04 10:45:02;;;;;;;25.73;3.72;;;6.40;99.90;;;;;;6134714;23;20425;-90
2023/03/04 10:47:31;;;;;;;26.02;3.90;;;6.60;99.90;;;;;;6134826;23;20014;-90
2023/03/04 10:50:03;;;;;;;23.90;3.67;;;6.60;99.90;;;;;;6134306;23;20021;-86
2023/03/04 10:52:38;;;;;;;26.73;3.75;;;6.70;99.90;;;;;;6137642;23;20013;-88
2023/03/04 10:58:45;;;;;;;22.67;3.60;;;6.80;99.90;;;;;;6184543;23;20032;-88
2023/03/04 11:01:16;;;;;;;23.67;3.42;;;6.80;99.90;;;;;;6129231;23;20391;-88
2023/03/04 11:03:47;;;;;;;19.20;3.70;;;6.80;99.90;;;;;;6159578;23;20023;-87
2023/03/04 11:06:20;;;;;;;24.58;3.83;;;6.90;99.90;;;;;;6136376;23;20400;-86
2023/03/04 11:09:29;;;;;;;16.65;2.92;;;6.80;99.90;;;;;;6133826;23;20458;-90
2023/03/04 11:12:14;;;;;;;26.83;4.30;;;6.90;99.90;;;;;;6008543;23;20035;-89
2023/03/04 11:14:49;;;;;;;32.28;4.03;;;6.60;99.90;;;;;;5963798;23;20016;-90
2023/03/04 11:17:25;;;;;;;21.92;3.65;;;6.70;99.90;;;;;;5961329;23;20098;-92
2023/03/04 11:20:27;;;;;;;24.00;3.58;;;6.80;99.90;;;;;;5960983;23;20031;-91
2023/03/04 11:23:36;;;;;;;21.90;3.33;;;6.70;99.90;;;;;;5980795;23;20019;-89
2023/03/04 11:26:20;;;;;;;21.23;3.45;;;6.90;99.90;;;;;;5962263;23;20495;-90
2023/03/04 11:32:42;;;;;;;21.13;3.63;;;7.10;99.90;;;;;;5954302;24;20148;-87
2023/03/04 11:35:53;;;;;;;23.80;3.72;;;6.50;99.90;;;;;;5912514;24;20017;-90
2023/03/04 11:38:23;;;;;;;21.92;3.67;;;6.50;99.90;;;;;;5877346;24;20018;-93
2023/03/04 11:41:03;;;;;;;24.90;4.13;;;6.30;99.90;;;;;;5879997;24;20035;-86
2023/03/04 11:43:38;;;;;;;24.05;3.67;;;6.60;99.90;;;;;;5887175;24;20022;-86
2023/03/04 11:46:40;;;;;;;19.63;3.28;;;6.80;99.90;;;;;;5864675;24;20074;-90
2023/03/04 11:49:30;;;;;;;25.17;3.78;;;6.70;99.90;;;;;;5955444;24;20037;-89
2023/03/04 11:52:16;;;;;;;22.73;3.78;;;6.80;99.90;;;;;;5954197;24;20053;-91
2023/03/04 11:55:07;;;;;;;20.98;3.60;;;6.50;99.90;;;;;;5930292;24;20028;-92
2023/03/04 11:58:17;;;;;;;24.65;3.80;;;7.00;99.90;;;;;;5934789;24;20040;-88
2023/03/04 12:01:15;;;;;;;26.83;3.70;;;6.90;99.90;;;;;;5876495;24;20033;-87
2023/03/04 12:04:01;;;;;;;31.33;4.30;;;6.90;99.90;;;;;;5822833;24;20169;-89
2023/03/04 12:06:50;;;;;;;28.15;4.53;;;7.00;99.90;;;;;;5822470;24;20019;-93
2023/03/04 12:09:25;;;;;;;27.83;4.53;;;6.80;99.90;;;;;;5833771;24;20010;-89
2023/03/04 12:12:14;;;;;;;28.50;4.45;;;7.00;99.90;;;;;;5848181;24;20178;-87
2023/03/04 12:14:49;;;;;;;28.00;4.28;;;6.80;99.90;;;;;;5864944;24;20021;-91
2023/03/04 12:17:34;;;;;;;34.60;4.13;;;6.80;99.90;;;;;;5907027;24;20020;-88
2023/03/04 12:20:09;;;;;;;25.63;3.70;;;6.80;99.90;;;;;;5910891;24;20358;-90
2023/03/04 12:22:48;;;;;;;25.77;3.78;;;6.70;99.90;;;;;;5957197;24;20071;-90
2023/03/04 12:25:39;;;;;;;20.23;3.65;;;6.60;99.90;;;;;;5958052;24;20098;-92
2023/03/04 12:28:36;;;;;;;21.98;3.50;;;6.30;99.90;;;;;;5957005;24;20102;-89
2023/03/04 12:31:24;;;;;;;21.67;3.30;;;6.20;99.90;;;;;;5921438;24;20087;-88
2023/03/04 12:34:26;;;;;;;20.88;3.58;;;6.20;99.90;;;;;;5950764;23;20018;-91
2023/03/04 12:37:33;;;;;;;18.13;3.08;;;6.50;99.90;;;;;;6025422;23;20102;-89
2023/03/04 12:43:53;;;;;;;15.10;2.65;;;6.80;99.90;;;;;;6172312;23;20024;-86
2023/03/04 12:46:41;;;;;;;20.08;3.42;;;6.90;99.90;;;;;;6145605;23;20146;-85
2023/03/04 12:49:19;;;;;;;17.58;3.25;;;6.90;99.90;;;;;;6168144;23;20053;-85
2023/03/04 12:51:45;;;;;;;19.85;3.30;;;6.80;99.90;;;;;;6137499;23;20010;-90
2023/03/04 12:57:55;;;;;;;19.08;2.97;;;6.80;99.90;;;;;;6164829;23;20012;-87
2023/03/04 13:00:42;;;;;;;17.33;2.72;;;6.50;99.90;;;;;;6135156;23;20415;-86
2023/03/04 13:03:46;;;;;;;12.20;2.58;;;6.30;99.90;;;;;;6133283;23;20044;-88
2023/03/04 13:06:50;;;;;;;12.38;2.30;;;6.20;99.90;;;;;;6043381;23;20379;-86
2023/03/04 13:09:48;;;;;;;12.27;2.28;;;6.00;99.90;;;;;;6013274;23;20019;-86
2023/03/04 13:12:22;;;;;;;13.98;2.45;;;6.20;99.90;;;;;;6029861;23;20026;-88
2023/03/04 13:15:20;;;;;;;16.95;2.60;;;6.00;99.90;;;;;;6031074;23;20015;-86
2023/03/04 13:17:54;;;;;;;18.77;2.55;;;6.40;99.90;;;;;;5974600;23;20087;-86
2023/03/04 13:20:37;;;;;;;20.40;3.08;;;6.70;99.90;;;;;;5997552;23;20083;-85
2023/03/04 13:23:08;;;;;;;22.52;3.20;;;6.50;99.90;;;;;;5975978;23;20341;-85
2023/03/04 13:25:39;;;;;;;20.20;2.55;;;6.20;99.90;;;;;;5964737;23;20015;-88
2023/03/04 13:28:09;;;;;;;19.08;3.00;;;6.10;99.90;;;;;;5961900;23;20456;-86
2023/03/04 13:30:34;;;;;;;19.63;2.30;;;6.00;99.90;;;;;;5961500;23;20436;-88
2023/03/04 13:33:09;;;;;;;16.45;2.80;;;6.10;99.90;;;;;;5960901;23;20090;-85
2023/03/04 13:35:53;;;;;;;16.23;2.90;;;6.00;99.90;;;;;;5960220;23;20130;-89
2023/03/04 13:41:55;;;;;;;19.20;2.85;;;6.50;99.90;;;;;;6069462;23;20081;-86
2023/03/04 13:48:25;;;;;;;21.50;3.63;;;6.80;99.90;;;;;;5957510;24;20075;-87
2023/03/04 13:55:26;;;;;;;18.35;3.28;;;6.70;99.90;;;;;;5926676;24;20127;-90
2023/03/04 13:57:52;;;;;;;27.85;3.95;;;6.80;99.90;;;;;;5918542;24;20462;-86
2023/03/04 14:00:18;;;;;;;26.77;3.53;;;7.00;99.90;;;;;;5899675;24;20021;-89
2023/03/04 14:02:44;;;;;;;30.17;3.95;;;6.80;99.90;;;;;;5901127;24;20134;-87
2023/03/04 14:05:11;;;;;;;24.08;4.00;;;6.70;99.90;;;;;;5905784;24;20017;-87
2023/03/04 14:07:40;;;;;;;16.77;2.55;;;6.80;99.90;;;;;;5888135;24;20072;-87
2023/03/04 14:10:26;;;;;;;19.52;3.08;;;6.60;99.90;;;;;;5920457;24;20153;-84
2023/03/04 14:12:55;;;;;;;15.10;2.55;;;6.50;99.90;;;;;;5896132;24;20040;-86
2023/03/04 14:15:54;;;;;;;21.60;3.03;;;6.60;99.90;;;;;;5903810;24;20061;-86
2023/03/04 14:18:43;;;;;;;;;;;;;;;;;;;;;
2023/03/04 14:21:52;;;;;;;22.98;3.35;;;6.40;99.90;;;;;;5764352;24;20068;-89
2023/03/04 14:25:12;;;;;;;18.90;2.67;;;5.80;99.90;;;;;;5836867;24;20037;-84
2023/03/04 14:27:38;;;;;;;18.13;2.63;;;5.70;99.90;;;;;;5941882;23;20016;-88
2023/03/04 14:30:19;;;;;;;16.15;3.08;;;5.80;99.90;;;;;;5981563;23;20042;-86
2023/03/04 14:32:48;;;;;;;25.88;3.60;;;5.90;99.90;;;;;;5980860;23;20015;-85
2023/03/04 14:35:32;;;;;;;19.80;3.17;;;5.90;99.90;;;;;;5980213;23;20016;-86
2023/03/04 14:38:03;;;;;;;14.10;2.77;;;6.00;99.90;;;;;;5982315;23;20060;-88
2023/03/04 14:40:51;;;;;;;12.77;2.47;;;6.10;99.90;;;;;;5983759;23;20108;-89
2023/03/04 14:43:19;;;;;;;26.15;3.50;;;6.30;99.90;;;;;;5988281;23;20052;-87
2023/03/04 14:45:50;;;;;;;19.63;3.28;;;6.10;99.90;;;;;;5984569;23;20019;-87
2023/03/04 14:48:30;;;;;;;22.95;3.53;;;5.70;99.90;;;;;;5984491;23;20027;-89
2023/03/04 14:52:08;;;;;;;18.45;2.88;;;5.60;99.90;;;;;;5958971;23;20531;-88
2023/03/04 14:59:15;;;;;;;22.60;3.22;;;5.60;99.90;;;;;;5985024;23;20405;-87
2023/03/04 15:01:57;;;;;;;24.98;3.60;;;5.80;99.90;;;;;;5983553;23;20022;-89
2023/03/04 15:04:26;;;;;;;25.63;4.00;;;5.80;99.90;;;;;;5985214;23;20404;-87
2023/03/04 15:06:54;;;;;;;24.77;3.50;;;5.60;99.90;;;;;;5985525;23;20022;-88
2023/03/04 15:09:54;;;;;;;16.45;2.78;;;5.70;99.90;;;;;;5985201;23;20344;-87
2023/03/04 15:13:06;;;;;;;;;;;;;;;;;;;;;
2023/03/04 15:15:38;;;;;;;17.25;2.60;;;5.30;99.90;;;;;;6003635;23;20019;-91
2023/03/04 15:18:25;;;;;;;16.08;2.55;;;5.50;99.90;;;;;;5988235;23;20023;-88
2023/03/04 15:20:54;;;;;;;12.93;2.30;;;5.70;99.90;;;;;;5987422;23;20355;-88
2023/03/04 15:23:20;;;;;;;19.50;2.53;;;5.60;99.90;;;;;;5992124;23;20083;-90
2023/03/04 15:26:09;;;;;;;26.38;3.60;;;5.50;99.90;;;;;;6083736;23;20021;-88
2023/03/04 15:28:36;;;;;;;24.40;3.60;;;5.50;99.90;;;;;;6127932;23;20148;-84
2023/03/04 15:31:04;;;;;;;20.42;3.22;;;5.60;99.90;;;;;;6126099;23;20013;-86
2023/03/04 15:33:30;;;;;;;21.88;3.72;;;5.60;99.90;;;;;;6127534;23;20086;-85
2023/03/04 15:36:01;;;;;;;20.38;2.97;;;5.50;99.90;;;;;;6127646;23;20472;-86
2023/03/04 15:38:31;;;;;;;15.02;2.70;;;5.40;99.90;;;;;;6126560;23;20021;-85
2023/03/04 15:45:55;;;;;;;26.80;3.10;;;5.50;99.90;;;;;;6007117;23;20072;-89
2023/03/04 15:48:21;;;;;;;15.55;2.45;;;5.30;99.90;;;;;;5938170;23;20024;-84
2023/03/04 15:50:49;;;;;;;19.27;3.25;;;4.90;99.90;;;;;;5956842;23;20024;-86
2023/03/04 15:53:24;;;;;;;23.42;3.38;;;4.90;99.90;;;;;;5980648;23;20020;-85
2023/03/04 15:55:50;;;;;;;21.38;3.05;;;4.80;99.90;;;;;;5959347;23;20080;-89
2023/03/04 15:58:17;;;;;;;25.58;3.28;;;4.70;99.90;;;;;;5961018;23;20577;-89
2023/03/04 16:00:45;;;;;;;16.20;2.90;;;4.80;99.90;;;;;;5961187;23;20159;-88
2023/03/04 16:03:21;;;;;;;18.65;2.78;;;4.90;99.90;;;;;;5984722;23;20020;-86
2023/03/04 16:05:55;;;;;;;21.55;2.78;;;5.00;99.90;;;;;;5959340;23;20038;-88
2023/03/04 16:08:24;;;;;;;18.02;2.83;;;5.40;99.90;;;;;;5958859;23;20508;-85
2023/03/04 16:11:05;;;;;;;14.63;2.22;;;5.50;99.90;;;;;;5958980;23;20016;-88
2023/03/04 16:13:55;;;;;;;;;;;;;;;;;;;;;
2023/03/04 16:16:29;;;;;;;21.13;2.50;;;5.60;99.90;;;;;;5980650;23;20068;-88
2023/03/04 16:19:29;;;;;;;20.45;3.15;;;5.50;99.90;;;;;;5973456;23;20011;-87
2023/03/04 16:22:50;;;;;;;20.00;2.90;;;5.30;99.90;;;;;;6119369;23;20044;-85
2023/03/04 16:29:40;;;;;;;22.25;3.20;;;5.10;99.90;;;;;;6065117;23;20041;-86
2023/03/04 16:32:12;;;;;;;21.33;3.00;;;5.20;99.90;;;;;;6039160;23;20647;-89
2023/03/04 16:34:46;;;;;;;19.95;3.17;;;5.10;99.90;;;;;;6040406;23;20074;-85
2023/03/04 16:37:28;;;;;;;25.52;3.95;;;5.10;99.90;;;;;;6040008;23;20095;-87
2023/03/04 16:40:10;;;;;;;17.38;3.33;;;5.20;99.90;;;;;;6062921;23;20021;-89
2023/03/04 16:42:53;;;;;;;13.63;3.17;;;5.20;99.90;;;;;;6013926;23;20023;-88
2023/03/04 16:46:17;;;;;;;18.08;2.53;;;5.00;99.90;;;;;;6063622;23;20539;-88
2023/03/04 16:50:02;;;;;;;;;;;;;;;;;;;;;
2023/03/04 16:52:59;;;;;;;20.30;2.38;;;5.10;99.90;;;;;;5900024;24;20017;-88
2023/03/04 17:06:58;;;;;;;13.57;2.20;;;5.00;99.90;;;;;;5901094;24;20029;-87
2023/03/04 17:09:24;;;;;;;14.98;2.83;;;4.50;99.90;;;;;;5876062;24;20021;-87
2023/03/04 17:11:51;;;;;;;22.50;2.83;;;4.40;99.90;;;;;;5896375;24;20100;-86
2023/03/04 17:14:17;;;;;;;16.35;1.90;;;4.50;99.90;;;;;;5876076;24;20025;-85
2023/03/04 17:16:46;;;;;;;16.83;2.90;;;4.30;99.90;;;;;;5875184;24;20325;-85
2023/03/04 17:19:49;;;;;;;20.88;2.45;;;4.10;99.90;;;;;;5884258;24;20020;-86
2023/03/04 17:22:32;;;;;;;14.82;2.15;;;4.30;99.90;;;;;;5928543;23;20106;-88
2023/03/04 17:32:52;;;;;;;12.07;1.90;;;4.20;99.90;;;;;;5962138;24;20099;-85
2023/03/04 17:35:25;;;;;;;16.08;2.30;;;4.40;99.90;;;;;;5900647;23;20017;-85
2023/03/04 17:38:32;;;;;;;13.88;2.33;;;4.10;99.90;;;;;;5902268;24;20306;-87
2023/03/04 17:41:55;;;;;;;;;;;;;;;;;;;;;
2023/03/04 18:24:24;;;;;;;21.27;2.40;;;4.20;99.90;;;;;;6199686;23;20428;-84
2023/03/04 18:27:09;;;;;;;23.45;2.95;;;4.40;99.90;;;;;;6180133;23;20075;-88
2023/03/04 21:06:15;;;;;;;14.85;1.85;;;3.60;99.90;;;;;;6149558;23;20030;-86
2023/03/04 21:08:42;;;;;;;7.57;1.80;;;3.90;99.90;;;;;;6100564;23;20021;-86
2023/03/04 21:18:13;;;;;;;15.75;2.20;;;3.50;99.90;;;;;;6037137;23;20101;-86
2023/03/04 21:25:39;;;;;;;;;;;;;;;;;;;;;
2023/03/04 23:24:45;;;;;;;;;;;;;;;;;;;;;
2023/03/04 23:28:41;;;;;;;10.45;1.52;;;3.50;99.90;;;;;;6237818;23;20027;-84
2023/03/04 23:34:42;;;;;;;9.32;1.40;;;3.20;99.90;;;;;;6033360;23;20038;-84
2023/03/04 23:38:35;;;;;;;7.85;1.10;;;3.50;99.90;;;;;;6027249;23;20026;-85
2023/03/04 23:41:11;;;;;;;8.40;1.23;;;3.10;99.90;;;;;;6082278;23;20341;-85
2023/03/04 23:48:22;;;;;;;;;;;;;;;;;;;;;
2023/03/04 23:51:22;;;;;;;8.30;1.30;;;2.90;99.90;;;;;;6119472;23;20022;-84
2023/03/04 23:58:16;;;;;;;7.88;1.00;;;3.30;99.90;;;;;;6075095;23;20316;-86
